APL Norway — A8NC4 — position and weather

sailwx.info

Track history (hours):
 
Tides and Currents Weather Stations Pressure Air Temp Water Temp Dewpoint Dewpoint Depression Visibility Wind Speed Wind Dir Waves Ship Positions

APL Norway

Last reported at 2016-Feb-13 14:27 UTC. Time now 2016-Feb-14 05:56 UTC.
Position N 24°31' E 119°19'.

Length 295 m; draft 12.6 m.

Type: Cargo ship. MMSI: 636013456.

Date/timePositionNaut miles runAvg speedWind from/ knotsBaromVisibWave heightAir tempDewpointWater temp
2016-Feb-13 14:27N 24°31' E 119°19'30818.2
2016-Feb-12 21:31N 22°07' E 114°22'1514.6
2016-Feb-12 20:30N 22°14' E 114°08'6 6.7
2016-Feb-12 19:33N 22°20' E 114°07'0 0.2
2016-Feb-12 18:33N 22°20' E 114°08'0 0.0
2016-Feb-12 17:28N 22°20' E 114°08'0 0.1
2016-Feb-12 16:31N 22°20' E 114°08'0 0.1
2016-Feb-12 15:31N 22°20' E 114°08'0 0.0
2016-Feb-12 14:19N 22°20' E 114°08'0 0.1
2016-Feb-12 13:28N 22°20' E 114°08'0 0.0
2016-Feb-12 12:31N 22°20' E 114°08'0 0.0
2016-Feb-12 11:28N 22°20' E 114°08'0 0.1
2016-Feb-12 10:28N 22°20' E 114°08'0 0.1
2016-Feb-12 09:22N 22°20' E 114°08'0 0.1
2016-Feb-12 08:31N 22°20' E 114°08'0 0.0
2016-Feb-12 07:31N 22°20' E 114°08'0 0.1
2016-Feb-12 06:28N 22°20' E 114°08'0 0.0
2016-Feb-12 05:28N 22°20' E 114°08'3 3.0
2016-Feb-12 04:34N 22°20' E 114°05'3 0.1
2016-Feb-11 01:24N 22°21' E 114°02'6 6.8
2016-Feb-11 00:33N 22°17' E 114°06'10 8.6
2016-Feb-10 23:24N 22°09' E 114°13'6 7.5
2016-Feb-10 22:33N 22°08' E 114°20'9 9.1
2016-Feb-10 21:32N 22°08' E 114°30'9 9.0
2016-Feb-10 20:31N 22°07' E 114°40'286 9.9
2016-Feb-09 15:33N 22°30' E 119°48'8 8.2
2016-Feb-09 14:33N 22°31' E 119°57'1111.2
2016-Feb-09 13:33N 22°32' E 120°09'9 9.2
2016-Feb-09 12:33N 22°33' E 120°19'0 0.1
2016-Feb-09 11:33N 22°34' E 120°19'0 0.0
2016-Feb-09 10:17N 22°34' E 120°19'0 0.0
2016-Feb-09 09:29N 22°34' E 120°19'0 0.0
2016-Feb-09 08:29N 22°34' E 120°19'0 0.0
2016-Feb-09 07:29N 22°34' E 120°19'0 0.0
2016-Feb-09 06:23N 22°34' E 120°19'0 0.0
2016-Feb-09 05:29N 22°34' E 120°19'0 0.0
2016-Feb-09 04:29N 22°34' E 120°19'0 0.0
2016-Feb-09 03:29N 22°34' E 120°19'0 0.0
2016-Feb-09 02:23N 22°34' E 120°19'0 0.0
2016-Feb-09 01:23N 22°34' E 120°19'0 0.0
2016-Feb-09 00:29N 22°34' E 120°19'0 0.0
2016-Feb-08 23:29N 22°34' E 120°19'0 0.1
2016-Feb-08 22:33N 22°34' E 120°19'5 5.3
2016-Feb-08 21:33N 22°32' E 120°14'9 9.5
2016-Feb-08 20:33N 22°38' E 120°06'1110.6
2016-Feb-08 19:33N 22°48' E 120°00'1111.1
2016-Feb-08 18:33N 22°57' E 119°54'  
Track history (hours):
 
Tides and Currents Weather Stations Pressure Air Temp Water Temp Dewpoint Dewpoint Depression Visibility Wind Speed Wind Dir Waves Ship Positions

APL Norway

Last reported at 2016-Feb-13 14:27 UTC. Time now 2016-Feb-14 05:56 UTC.
Position N 24°31' E 119°19'.

Length 295 m; draft 12.6 m.

Type: Cargo ship. MMSI: 636013456.

Date/timePositionNaut miles runAvg speedWind from/ knotsBaromVisibWave heightAir tempDewpointWater temp
2016-Feb-13 14:27N 24°31' E 119°19'30818.2
2016-Feb-12 21:31N 22°07' E 114°22'1514.6
2016-Feb-12 20:30N 22°14' E 114°08'6 6.7
2016-Feb-12 19:33N 22°20' E 114°07'0 0.2
2016-Feb-12 18:33N 22°20' E 114°08'0 0.0
2016-Feb-12 17:28N 22°20' E 114°08'0 0.1
2016-Feb-12 16:31N 22°20' E 114°08'0 0.1
2016-Feb-12 15:31N 22°20' E 114°08'0 0.0
2016-Feb-12 14:19N 22°20' E 114°08'0 0.1
2016-Feb-12 13:28N 22°20' E 114°08'0 0.0
2016-Feb-12 12:31N 22°20' E 114°08'0 0.0
2016-Feb-12 11:28N 22°20' E 114°08'0 0.1
2016-Feb-12 10:28N 22°20' E 114°08'0 0.1
2016-Feb-12 09:22N 22°20' E 114°08'0 0.1
2016-Feb-12 08:31N 22°20' E 114°08'0 0.0
2016-Feb-12 07:31N 22°20' E 114°08'0 0.1
2016-Feb-12 06:28N 22°20' E 114°08'0 0.0
2016-Feb-12 05:28N 22°20' E 114°08'3 3.0
2016-Feb-12 04:34N 22°20' E 114°05'3 0.1
2016-Feb-11 01:24N 22°21' E 114°02'6 6.8
2016-Feb-11 00:33N 22°17' E 114°06'10 8.6
2016-Feb-10 23:24N 22°09' E 114°13'6 7.5
2016-Feb-10 22:33N 22°08' E 114°20'9 9.1
2016-Feb-10 21:32N 22°08' E 114°30'9 9.0
2016-Feb-10 20:31N 22°07' E 114°40'286 9.9
2016-Feb-09 15:33N 22°30' E 119°48'8 8.2
2016-Feb-09 14:33N 22°31' E 119°57'1111.2
2016-Feb-09 13:33N 22°32' E 120°09'9 9.2
2016-Feb-09 12:33N 22°33' E 120°19'0 0.1
2016-Feb-09 11:33N 22°34' E 120°19'0 0.0
2016-Feb-09 10:17N 22°34' E 120°19'0 0.0
2016-Feb-09 09:29N 22°34' E 120°19'0 0.0
2016-Feb-09 08:29N 22°34' E 120°19'0 0.0
2016-Feb-09 07:29N 22°34' E 120°19'0 0.0
2016-Feb-09 06:23N 22°34' E 120°19'0 0.0
2016-Feb-09 05:29N 22°34' E 120°19'0 0.0
2016-Feb-09 04:29N 22°34' E 120°19'0 0.0
2016-Feb-09 03:29N 22°34' E 120°19'0 0.0
2016-Feb-09 02:23N 22°34' E 120°19'0 0.0
2016-Feb-09 01:23N 22°34' E 120°19'0 0.0
2016-Feb-09 00:29N 22°34' E 120°19'0 0.0
2016-Feb-08 23:29N 22°34' E 120°19'0 0.1
2016-Feb-08 22:33N 22°34' E 120°19'5 5.3
2016-Feb-08 21:33N 22°32' E 120°14'9 9.5
2016-Feb-08 20:33N 22°38' E 120°06'1110.6
2016-Feb-08 19:33N 22°48' E 120°00'1111.1
2016-Feb-08 18:33N 22°57' E 119°54'  

Dump ship's entire track history